Latest Weather Observations for Merriwa

IDN60801

Issued at 4:33 pm EST Thursday 29 September 2016 (issued every 30 minutes, with the page automatically refreshed every 10 minutes)

About weather observations | Map of weather stations | Latest weather observations for NSW | Other Formats
Station Details ID: 061287 Name: MERRIWA (ROSCOMMON) Lat: -32.19 Lon: 150.17 Height: 375.0 m
Data from the previous 72 hours. | See also: Recent months at Merriwa
Date/Time
EST
Temp
°C
App
Temp
°C
Dew
Point
°C
Rel
Hum
%
Delta-T
°C
Wind Press
QNH
hPa
Press
MSL
hPa
Rain since
9am
mm
Dir  Spd
km/h
Gust
km/h
Spd
kts
Gust
kts
29/04:30pm 15.4 9.4 6.9 57 4.3 WNW 28 41 15 22 998.1 997.6 4.4
29/04:02pm 17.3 10.9 8.4 56 4.7 NW 32 50 17 27 998.1 997.6 4.4
29/04:00pm 17.3 10.5 7.6 53 5.0 NW 33 50 18 27 998.0 997.5 4.4
29/03:55pm 17.5 11.6 8.9 57 4.6 NW 30 48 16 26 998.1 997.6 4.4
29/03:30pm 17.2 10.5 7.3 52 5.1 WNW 32 48 17 26 998.0 997.5 4.4
29/03:01pm 17.5 11.1 8.6 56 4.7 NW 32 50 17 27 997.4 997.0 4.4
29/03:00pm 17.4 10.7 8.3 55 4.8 NW 33 50 18 27 997.4 997.0 4.4
29/02:30pm 15.0 8.9 6.8 58 4.1 WNW 28 41 15 22 997.8 997.3 4.4
29/02:00pm 15.6 11.2 9.1 65 3.4 NNW 22 30 12 16 998.3 997.8 4.4
29/01:30pm 13.8 9.6 9.6 76 2.2 NNW 22 33 12 18 998.4 997.9 4.4
29/01:00pm 13.4 7.2 7.8 69 2.8 NW 30 39 16 21 999.8 999.4 4.4
29/12:38pm 13.7 9.3 10.5 81 1.7 WNW 24 33 13 18 999.9 999.5 4.2
29/12:30pm 13.9 10.5 13.6 98 0.2 WNW 24 35 13 19 999.4 998.9 4.2
29/12:24pm 14.2 10.9 13.9 98 0.2 WNW 24 35 13 19 999.9 999.5 4.0
29/12:00pm 15.8 13.0 15.3 97 0.3 NW 24 32 13 17 999.3 998.8 4.0
29/11:30am 15.0 14.1 14.8 99 0.1 NNW 13 22 7 12 999.9 999.5 4.0
29/11:00am 12.0 11.4 11.8 99 0.1 ENE 6 9 3 5 1000.3 999.9 3.0
29/10:30am 12.1 11.6 11.9 99 0.1 NE 6 17 3 9 1000.6 1000.1 1.8
29/10:00am 11.0 9.6 10.8 99 0.1 SSW 9 15 5 8 1001.2 1000.7 1.6
29/09:30am 11.3 10.3 11.1 99 0.1 S 7 17 4 9 1001.2 1000.7 0.0
29/09:00am 10.9 11.1 10.7 99 0.1 CALM 0 6 0 3 1001.3 1000.8 3.8
29/08:30am 10.4 8.8 10.2 99 0.1 ESE 9 13 5 7 1001.4 1000.9 3.2
29/08:00am 9.7 8.5 9.6 99 0.1 SE 6 9 3 5 1002.1 1001.7 2.6
29/07:30am 9.4 7.9 9.1 98 0.2 SE 7 11 4 6 1002.5 1002.1 2.0
29/07:00am 9.0 7.0 8.7 98 0.1 SSW 9 15 5 8 1003.0 1002.6 1.0
29/06:30am 8.8 6.0 8.5 98 0.1 WSW 13 17 7 9 1002.6 1002.2 0.6
29/06:00am 8.9 7.4 8.6 98 0.1 SSE 6 7 3 4 1002.3 1001.9 0.0
29/05:30am 8.5 6.8 8.2 98 0.1 SSE 7 9 4 5 1002.2 1001.8 0.0
29/05:00am 8.6 6.1 8.3 98 0.1 SSE 11 15 6 8 1002.5 1002.1 0.0
29/04:30am 8.9 7.3 8.6 98 0.1 ESE 7 11 4 6 1003.1 1002.7 0.0
29/04:00am 8.5 6.4 8.2 98 0.1 ESE 9 11 5 6 1003.5 1003.0 0.0
29/03:30am 8.0 6.7 7.7 98 0.1 E 4 9 2 5 1004.0 1003.5 0.0
29/03:00am 7.4 5.4 7.1 98 0.1 E 7 9 4 5 1004.5 1004.1 0.0
29/02:30am 7.0 4.9 6.7 98 0.1 ESE 7 9 4 5 1005.1 1004.7 0.0
29/02:00am 6.2 4.1 5.9 98 0.1 SE 6 7 3 4 1005.8 1005.4 0.0
29/01:30am 6.6 4.4 6.3 98 0.1 SE 7 9 4 5 1006.7 1006.3 0.0
29/01:00am 5.1 2.8 4.8 98 0.1 E 6 9 3 5 1007.0 1006.6 0.0
29/12:30am 4.1 1.5 3.4 95 0.3 E 6 7 3 4 1007.9 1007.5 0.0
29/12:00am 4.9 2.9 4.5 97 0.2 E 4 7 2 4 1008.4 1008.0 0.0
 
Date/Time
EST
Temp
°C
App
Temp
°C
Dew
Point
°C
Rel
Hum
%
Delta-T
°C
Wind Press
QNH
hPa
Press
MSL
hPa
Rain since
9am
mm
Dir  Spd
km/h
Gust
km/h
Spd
kts
Gust
kts
28/11:30pm 5.5 3.5 4.3 92 0.5 E 4 9 2 5 1009.1 1008.7 0.0
28/11:00pm 6.2 3.7 5.0 92 0.5 ENE 7 7 4 4 1009.2 1008.8 0.0
28/10:30pm 7.4 5.1 5.9 90 0.7 ENE 7 9 4 5 1009.3 1008.9 0.0
28/10:00pm 7.0 4.5 4.8 86 1.0 ENE 7 7 4 4 1009.7 1009.3 0.0
28/09:30pm 8.2 5.4 5.1 81 1.4 NE 9 11 5 6 1010.1 1009.7 0.0
28/09:00pm 8.7 6.0 5.6 81 1.4 ENE 9 11 5 6 1010.2 1009.8 0.0
28/08:30pm 7.6 4.7 4.9 83 1.2 ENE 9 11 5 6 1010.5 1010.1 0.0
28/08:00pm 8.9 6.7 6.3 84 1.2 NE 7 9 4 5 1010.5 1010.1 0.0
28/07:30pm 9.4 7.1 5.8 78 1.7 NE 7 9 4 5 1010.3 1009.9 0.0
28/07:00pm 11.0 8.5 6.4 73 2.2 E 9 13 5 7 1010.3 1009.9 0.0
28/06:30pm 11.6 8.7 6.7 72 2.4 ESE 11 13 6 7 1010.1 1009.7 0.0
28/06:00pm 13.6 11.9 7.6 67 3.0 ENE 6 7 3 4 1010.2 1009.8 0.0
28/05:30pm 16.6 14.6 7.3 54 4.7 ENE 7 9 4 5 1010.1 1009.7 0.0
28/05:00pm 17.8 15.5 5.7 45 6.0 E 7 9 4 5 1009.9 1009.5 0.0
28/04:30pm 18.3 15.4 4.8 41 6.6 ESE 9 15 5 8 1009.9 1009.5 0.0
28/04:00pm 18.6 16.2 4.4 39 6.9 ENE 6 11 3 6 1010.1 1009.7 0.0
28/03:30pm 18.6 16.4 6.4 45 6.2 SE 7 11 4 6 1010.2 1009.8 0.0
28/03:00pm 18.5 16.1 5.4 42 6.5 ESE 7 11 4 6 1010.6 1010.2 0.0
28/02:30pm 18.1 15.6 4.7 41 6.5 SE 7 11 4 6 1011.1 1010.8 0.0
28/02:00pm 18.8 16.8 6.9 46 6.1 NNE 7 13 4 7 1011.8 1011.4 0.0
28/01:30pm 17.9 15.0 4.8 42 6.4 N 9 13 5 7 1012.5 1012.1 0.0
28/01:00pm 17.3 15.7 6.2 48 5.6 E 4 11 2 6 1012.9 1012.5 0.0
28/12:30pm 16.4 13.5 4.8 46 5.6 ESE 9 15 5 8 1013.3 1013.0 0.0
28/12:00pm 16.4 13.6 7.1 54 4.7 ESE 11 13 6 7 1013.9 1013.6 0.0
28/11:30am 16.0 12.6 4.1 45 5.6 NE 11 17 6 9 1014.3 1014.0 0.0
28/11:00am 14.9 12.3 4.3 49 5.0 ENE 7 11 4 6 1014.6 1014.2 0.0
28/10:30am 14.5 12.0 6.6 59 3.9 ENE 9 13 5 7 1015.1 1014.7 0.0
28/10:00am 14.1 12.0 6.5 60 3.7 NNE 7 13 4 7 1015.4 1015.0 0.0
28/09:30am 13.3 11.1 5.5 59 3.7 ESE 6 11 3 6 1015.5 1015.1 0.0
28/09:00am 12.7 10.8 6.5 66 3.0 S 6 9 3 5 1015.6 1015.3 0.0
28/08:30am 11.1 8.9 6.3 72 2.3 S 7 11 4 6 1015.4 1015.0 0.0
28/08:00am 9.5 6.5 6.0 79 1.6 W 11 13 6 7 1015.5 1015.1 0.0
28/07:30am 8.7 5.7 6.0 83 1.3 WSW 11 13 6 7 1015.4 1015.0 0.0
28/07:00am 7.3 4.1 5.0 85 1.0 WNW 11 15 6 8 1015.2 1014.8 0.0
28/06:30am 5.8 2.5 4.3 90 0.7 W 11 13 6 7 1015.0 1014.6 0.0
28/06:00am 4.1 0.5 2.8 91 0.5 WNW 11 13 6 7 1014.6 1014.2 0.0
28/05:30am 4.6 0.6 2.9 89 0.7 WNW 13 15 7 8 1014.3 1014.0 0.0
28/05:00am 4.8 0.8 3.1 89 0.7 W 13 15 7 8 1014.2 1013.9 0.0
28/04:30am 5.0 1.5 3.5 90 0.6 WNW 11 13 6 7 1014.3 1014.0 0.0
28/04:00am 4.0 0.5 3.3 95 0.3 WNW 11 13 6 7 1014.3 1014.0 0.0
28/03:30am 4.4 1.2 3.1 91 0.5 WNW 9 9 5 5 1014.2 1013.9 0.0
28/03:00am 4.3 1.7 3.0 91 0.5 WNW 6 7 3 4 1014.1 1013.8 0.0
28/02:30am 4.9 1.7 3.2 89 0.7 WNW 9 13 5 7 1014.3 1014.0 0.0
28/02:00am 5.0 1.1 3.2 88 0.8 WNW 13 15 7 8 1014.5 1014.1 0.0
28/01:30am 4.1 0.1 2.8 91 0.5 WNW 13 15 7 8 1014.9 1014.5 0.0
28/01:00am 5.1 1.1 2.8 85 1.0 WNW 13 15 7 8 1015.0 1014.6 0.0
28/12:30am 6.0 2.5 3.3 83 1.2 WNW 11 13 6 7 1015.1 1014.7 0.0
28/12:00am 6.7 2.9 3.7 81 1.3 WNW 13 15 7 8 1015.0 1014.6 0.0
 
Date/Time
EST
Temp
°C
App
Temp
°C
Dew
Point
°C
Rel
Hum
%
Delta-T
°C
Wind Press
QNH
hPa
Press
MSL
hPa
Rain since
9am
mm
Dir  Spd
km/h
Gust
km/h
Spd
kts
Gust
kts
27/11:30pm 6.2 2.6 3.2 81 1.3 WNW 11 15 6 8 1015.1 1014.7 0.0
27/11:00pm 6.6 2.7 3.6 81 1.3 WNW 13 17 7 9 1014.8 1014.4 0.0
27/10:30pm 6.5 2.5 2.8 77 1.6 WNW 13 15 7 8 1014.7 1014.3 0.0
27/10:00pm 7.2 3.2 3.1 75 1.8 WNW 13 17 7 9 1014.7 1014.3 0.0
27/09:30pm 6.7 2.7 3.0 77 1.6 WNW 13 15 7 8 1014.8 1014.4 0.0
27/09:00pm 6.8 3.6 2.9 76 1.7 WNW 9 13 5 7 1014.8 1014.4 0.0
27/08:30pm 7.2 3.2 2.9 74 1.8 W 13 17 7 9 1014.3 1014.0 0.0
27/08:00pm 8.8 5.5 2.6 65 2.7 W 9 13 5 7 1014.3 1014.0 0.0
27/07:30pm 8.3 5.4 1.7 63 2.8 W 6 9 3 5 1014.2 1013.9 0.0
27/07:00pm 11.2 7.4 2.0 53 4.0 W 11 15 6 8 1013.7 1013.4 0.0
27/06:30pm 12.5 7.8 1.2 46 4.9 W 15 24 8 13 1013.2 1012.8 0.0
27/06:00pm 13.5 8.0 0.9 42 5.5 W 19 28 10 15 1012.9 1012.5 0.0
27/05:30pm 14.8 9.3 1.7 41 5.9 W 20 30 11 16 1012.6 1012.2 0.0
27/05:00pm 16.0 9.0 1.7 38 6.5 WSW 28 41 15 22 1012.1 1011.7 0.0
27/04:38pm 16.1 9.5 4.2 45 5.7 WSW 28 46 15 25 1011.7 1011.3 0.0
27/04:30pm 16.7 11.4 5.0 46 5.7 W 22 41 12 22 1011.5 1011.2 0.0
27/04:07pm 17.1 10.8 5.7 47 5.6 W 28 46 15 25 1011.1 1010.8 0.0
27/04:00pm 17.7 10.7 5.9 46 5.9 W 32 48 17 26 1010.9 1010.5 0.0
27/03:37pm 18.0 10.6 4.9 42 6.4 W 33 52 18 28 1010.5 1010.1 0.0
27/03:30pm 18.1 10.9 6.0 45 6.1 W 33 50 18 27 1010.5 1010.1 0.0
27/03:02pm 18.6 12.5 6.4 45 6.2 W 28 46 15 25 1010.3 1009.9 0.0
27/03:00pm 19.1 13.2 7.5 47 6.0 W 28 43 15 23 1010.4 1010.0 0.0
27/02:30pm 18.7 11.1 7.5 48 5.8 W 37 57 20 31 1010.4 1010.0 0.0
27/02:00pm 17.9 11.0 7.3 50 5.4 W 33 52 18 28 1010.4 1010.0 0.0
27/01:31pm 18.0 10.7 7.1 49 5.6 W 35 54 19 29 1010.6 1010.2 0.0
27/01:30pm 18.2 10.5 7.3 49 5.6 W 37 54 20 29 1010.6 1010.2 0.0
27/01:00pm 19.2 11.5 7.0 45 6.3 W 37 56 20 30 1010.5 1010.1 0.0
27/12:30pm 18.5 11.3 6.0 44 6.3 WNW 33 54 18 29 1010.7 1010.3 0.0
27/12:01pm 19.7 11.7 7.4 45 6.4 WNW 39 57 21 31 1010.9 1010.5 0.0
27/12:00pm 19.7 11.2 6.8 43 6.6 WNW 41 57 22 31 1010.9 1010.5 0.0
27/11:50am 19.5 10.5 6.6 43 6.6 WNW 43 63 23 34 1011.0 1010.7 0.0
27/11:30am 19.5 10.5 6.6 43 6.6 WNW 43 56 23 30 1011.1 1010.8 0.0
27/11:08am 19.3 10.8 6.8 44 6.4 WNW 41 63 22 34 1011.4 1011.1 0.0
27/11:00am 19.2 10.9 6.3 43 6.6 WNW 39 56 21 30 1011.4 1011.1 0.0
27/10:32am 18.9 10.6 6.1 43 6.5 WNW 39 57 21 31 1012.0 1011.6 0.0
27/10:30am 18.9 11.2 5.4 41 6.7 WNW 35 52 19 28 1012.0 1011.6 0.0
27/10:16am 18.8 12.0 6.9 46 6.1 WNW 32 52 17 28 1012.1 1011.7 0.0
27/10:00am 18.1 11.3 7.5 50 5.5 NW 33 46 18 25 1012.3 1011.9 0.0
27/09:30am 17.5 10.8 7.3 51 5.2 NW 32 48 17 26 1012.6 1012.2 0.0
27/09:00am 16.6 11.6 8.1 57 4.4 NW 24 37 13 20 1013.2 1012.8 0.0
27/08:30am 14.7 11.4 9.5 71 2.7 NNW 17 26 9 14 1013.8 1013.5 0.0
27/08:00am 11.5 9.2 7.4 76 2.0 WNW 9 13 5 7 1014.1 1013.8 0.0
27/07:30am 9.1 6.8 7.4 89 0.8 W 9 13 5 7 1014.3 1014.0 0.0
27/07:00am 6.6 4.4 6.3 98 0.1 WSW 7 11 4 6 1014.5 1014.1 0.0
27/06:30am 4.5 1.5 4.2 98 0.1 SW 9 11 5 6 1014.2 1013.9 0.0
27/06:00am 2.8 -0.9 2.5 98 0.1 SW 11 13 6 7 1013.8 1013.5 0.0
27/05:30am 2.7 0.0 2.4 98 0.1 W 6 9 3 5 1013.8 1013.5 0.0
27/05:00am 3.1 -0.1 2.8 98 0.1 WSW 9 11 5 6 1013.9 1013.6 0.0
27/04:30am 2.6 -0.2 2.3 98 0.1 WSW 6 9 3 5 1014.1 1013.8 0.0
27/04:00am 3.3 0.5 3.0 98 0.1 W 7 9 4 5 1014.0 1013.7 0.0
27/03:30am 3.9 0.8 3.6 98 0.1 W 9 11 5 6 1014.1 1013.8 0.0
27/03:00am 3.9 0.8 3.6 98 0.1 W 9 13 5 7 1014.1 1013.8 0.0
27/02:30am 3.7 0.5 3.1 96 0.2 SW 9 13 5 7 1014.2 1013.9 0.0
27/02:00am 6.4 3.0 3.9 84 1.1 NNW 11 13 6 7 1014.0 1013.7 0.0
27/01:30am 6.8 3.5 4.3 84 1.1 NNW 11 15 6 8 1014.3 1014.0 0.0
27/01:00am 5.7 2.3 4.0 89 0.7 NNW 11 13 6 7 1014.8 1014.4 0.0
27/12:30am 5.7 2.0 4.2 90 0.7 NW 13 13 7 7 1015.1 1014.7 0.0
27/12:00am 6.1 2.8 4.4 89 0.7 NW 11 15 6 8 1015.1 1014.7 0.0
 
Date/Time
EST
Temp
°C
App
Temp
°C
Dew
Point
°C
Rel
Hum
%
Delta-T
°C
Wind Press
QNH
hPa
Press
MSL
hPa
Rain since
9am
mm
Dir  Spd
km/h
Gust
km/h
Spd
kts
Gust
kts
26/11:30pm 6.1 2.8 4.6 90 0.7 NW 11 13 6 7 1015.2 1014.8 0.0
26/11:00pm 6.1 2.8 4.3 88 0.8 NW 11 13 6 7 1015.3 1014.9 0.0
26/10:30pm 6.5 3.2 4.8 89 0.8 NW 11 13 6 7 1015.3 1014.9 0.0
26/10:00pm 6.5 2.9 4.8 89 0.8 NW 13 15 7 8 1015.3 1014.9 0.0
26/09:30pm 7.0 3.4 4.8 86 1.0 NW 13 13 7 7 1015.1 1014.7 0.0
26/09:00pm 7.4 3.7 4.2 80 1.4 WNW 13 13 7 7 1015.2 1014.8 0.0
26/08:30pm 8.7 4.7 5.1 78 1.6 WNW 15 17 8 9 1015.0 1014.6 0.0
26/08:00pm 9.3 5.6 4.7 73 2.1 WNW 13 15 7 8 1015.0 1014.6 0.0
26/07:30pm 10.0 6.3 4.6 69 2.5 W 13 15 7 8 1014.8 1014.4 0.0
26/07:00pm 11.1 8.3 5.0 66 2.8 W 9 13 5 7 1014.3 1014.0 0.0
26/06:30pm 11.8 8.6 5.0 63 3.2 W 11 17 6 9 1013.9 1013.6 0.0
26/06:00pm 12.9 8.1 4.6 57 3.9 W 19 26 10 14 1013.4 1013.1 0.0
26/05:30pm 13.7 8.4 5.1 56 4.1 WSW 22 33 12 18 1012.8 1012.4 0.0
26/05:00pm 14.3 8.6 4.9 53 4.5 WSW 24 32 13 17 1012.3 1011.9 0.0

Other Formats:

Comma delimited format used in spreadsheet applications
http://www.bom.gov.au/fwo/IDN60801/IDN60801.95754.axf

JavaScript Object Notation format (JSON) in row-major order
http://www.bom.gov.au/fwo/IDN60801/IDN60801.95754.json